sensor_id;sensor_type;location;lat;lon;timestamp;P1;durP1;ratioP1;P2;durP2;ratioP2
82646;SDS011;72325;41.910;22.404;2023-09-18T00:02:25;13.32;;;11.27;;
82646;SDS011;72325;41.910;22.404;2023-09-18T00:04:53;14.60;;;10.60;;
82646;SDS011;72325;41.910;22.404;2023-09-18T00:07:19;15.95;;;10.93;;
82646;SDS011;72325;41.910;22.404;2023-09-18T00:09:45;12.05;;;9.95;;
82646;SDS011;72325;41.910;22.404;2023-09-18T00:12:11;13.18;;;10.80;;
82646;SDS011;72325;41.910;22.404;2023-09-18T00:14:37;15.90;;;11.25;;
82646;SDS011;72325;41.910;22.404;2023-09-18T00:17:03;15.70;;;11.02;;
82646;SDS011;72325;41.910;22.404;2023-09-18T00:19:29;17.05;;;10.13;;
82646;SDS011;72325;41.910;22.404;2023-09-18T00:21:57;15.23;;;11.18;;
82646;SDS011;72325;41.910;22.404;2023-09-18T00:24:26;13.93;;;10.93;;
82646;SDS011;72325;41.910;22.404;2023-09-18T00:26:52;17.17;;;11.70;;
82646;SDS011;72325;41.910;22.404;2023-09-18T00:29:19;13.98;;;10.88;;
82646;SDS011;72325;41.910;22.404;2023-09-18T00:31:45;15.93;;;11.25;;
82646;SDS011;72325;41.910;22.404;2023-09-18T00:34:11;15.15;;;11.30;;
82646;SDS011;72325;41.910;22.404;2023-09-18T00:36:37;14.27;;;11.75;;
82646;SDS011;72325;41.910;22.404;2023-09-18T00:39:03;14.15;;;11.38;;
82646;SDS011;72325;41.910;22.404;2023-09-18T00:41:29;14.20;;;12.05;;
82646;SDS011;72325;41.910;22.404;2023-09-18T00:43:55;14.52;;;11.68;;
82646;SDS011;72325;41.910;22.404;2023-09-18T00:46:22;14.63;;;11.98;;
82646;SDS011;72325;41.910;22.404;2023-09-18T00:48:48;17.05;;;12.00;;
82646;SDS011;72325;41.910;22.404;2023-09-18T00:51:15;16.77;;;11.23;;
82646;SDS011;72325;41.910;22.404;2023-09-18T00:53:45;12.88;;;10.77;;
82646;SDS011;72325;41.910;22.404;2023-09-18T00:56:13;17.00;;;11.57;;
82646;SDS011;72325;41.910;22.404;2023-09-18T00:58:40;14.95;;;11.15;;
82646;SDS011;72325;41.910;22.404;2023-09-18T01:01:06;14.55;;;11.13;;
82646;SDS011;72325;41.910;22.404;2023-09-18T01:03:33;15.23;;;10.77;;
82646;SDS011;72325;41.910;22.404;2023-09-18T01:05:59;12.75;;;10.27;;
82646;SDS011;72325;41.910;22.404;2023-09-18T01:08:25;14.48;;;10.68;;
82646;SDS011;72325;41.910;22.404;2023-09-18T01:13:20;13.70;;;10.45;;
82646;SDS011;72325;41.910;22.404;2023-09-18T01:16:08;16.10;;;10.63;;
82646;SDS011;72325;41.910;22.404;2023-09-18T01:18:36;14.20;;;10.60;;
82646;SDS011;72325;41.910;22.404;2023-09-18T01:21:02;13.68;;;10.35;;
82646;SDS011;72325;41.910;22.404;2023-09-18T01:23:28;13.20;;;10.68;;
82646;SDS011;72325;41.910;22.404;2023-09-18T01:25:54;15.70;;;10.60;;
82646;SDS011;72325;41.910;22.404;2023-09-18T01:28:20;15.70;;;11.07;;
82646;SDS011;72325;41.910;22.404;2023-09-18T01:30:46;15.95;;;10.20;;
82646;SDS011;72325;41.910;22.404;2023-09-18T01:33:12;13.80;;;11.00;;
82646;SDS011;72325;41.910;22.404;2023-09-18T01:35:39;14.73;;;10.88;;
82646;SDS011;72325;41.910;22.404;2023-09-18T01:38:06;18.55;;;10.52;;
82646;SDS011;72325;41.910;22.404;2023-09-18T01:40:35;14.23;;;10.82;;
82646;SDS011;72325;41.910;22.404;2023-09-18T01:43:01;14.30;;;10.93;;
82646;SDS011;72325;41.910;22.404;2023-09-18T01:45:28;13.60;;;10.60;;
82646;SDS011;72325;41.910;22.404;2023-09-18T01:47:54;12.85;;;10.43;;
82646;SDS011;72325;41.910;22.404;2023-09-18T01:50:20;11.85;;;10.00;;
82646;SDS011;72325;41.910;22.404;2023-09-18T01:52:46;16.38;;;10.50;;
82646;SDS011;72325;41.910;22.404;2023-09-18T01:55:12;12.50;;;10.60;;
82646;SDS011;72325;41.910;22.404;2023-09-18T01:57:38;17.92;;;10.73;;
82646;SDS011;72325;41.910;22.404;2023-09-18T02:00:05;13.57;;;11.45;;
82646;SDS011;72325;41.910;22.404;2023-09-18T02:02:35;13.70;;;11.02;;
82646;SDS011;72325;41.910;22.404;2023-09-18T02:05:01;14.18;;;11.18;;
82646;SDS011;72325;41.910;22.404;2023-09-18T02:07:28;14.80;;;10.38;;
82646;SDS011;72325;41.910;22.404;2023-09-18T02:09:54;12.98;;;10.45;;
82646;SDS011;72325;41.910;22.404;2023-09-18T02:12:20;12.90;;;10.57;;
82646;SDS011;72325;41.910;22.404;2023-09-18T02:14:46;13.00;;;10.60;;
82646;SDS011;72325;41.910;22.404;2023-09-18T02:17:12;16.05;;;11.85;;
82646;SDS011;72325;41.910;22.404;2023-09-18T02:19:38;15.65;;;11.02;;
82646;SDS011;72325;41.910;22.404;2023-09-18T02:22:04;15.90;;;12.07;;
82646;SDS011;72325;41.910;22.404;2023-09-18T02:24:30;16.27;;;11.27;;
82646;SDS011;72325;41.910;22.404;2023-09-18T02:26:56;12.98;;;10.65;;
82646;SDS011;72325;41.910;22.404;2023-09-18T02:29:22;16.75;;;11.60;;
82646;SDS011;72325;41.910;22.404;2023-09-18T02:31:48;16.40;;;11.35;;
82646;SDS011;72325;41.910;22.404;2023-09-18T02:34:15;18.33;;;11.63;;
82646;SDS011;72325;41.910;22.404;2023-09-18T02:36:41;15.32;;;10.75;;
82646;SDS011;72325;41.910;22.404;2023-09-18T02:39:07;14.40;;;10.57;;
82646;SDS011;72325;41.910;22.404;2023-09-18T02:41:33;16.52;;;11.35;;
82646;SDS011;72325;41.910;22.404;2023-09-18T02:43:59;16.23;;;11.07;;
82646;SDS011;72325;41.910;22.404;2023-09-18T02:46:25;15.82;;;11.95;;
82646;SDS011;72325;41.910;22.404;2023-09-18T02:48:51;15.70;;;11.30;;
82646;SDS011;72325;41.910;22.404;2023-09-18T02:51:17;14.32;;;10.88;;
82646;SDS011;72325;41.910;22.404;2023-09-18T02:53:43;15.15;;;11.38;;
82646;SDS011;72325;41.910;22.404;2023-09-18T02:56:09;15.27;;;10.77;;
82646;SDS011;72325;41.910;22.404;2023-09-18T02:58:35;13.70;;;11.35;;
82646;SDS011;72325;41.910;22.404;2023-09-18T03:01:02;14.20;;;11.05;;
82646;SDS011;72325;41.910;22.404;2023-09-18T03:03:30;13.25;;;10.85;;
82646;SDS011;72325;41.910;22.404;2023-09-18T03:06:05;15.25;;;11.05;;
82646;SDS011;72325;41.910;22.404;2023-09-18T03:08:31;15.32;;;10.63;;
82646;SDS011;72325;41.910;22.404;2023-09-18T03:10:57;15.15;;;10.48;;
82646;SDS011;72325;41.910;22.404;2023-09-18T03:13:25;16.65;;;12.13;;
82646;SDS011;72325;41.910;22.404;2023-09-18T03:15:52;13.75;;;11.10;;
82646;SDS011;72325;41.910;22.404;2023-09-18T03:18:18;12.80;;;11.25;;
82646;SDS011;72325;41.910;22.404;2023-09-18T03:20:44;16.00;;;12.38;;
82646;SDS011;72325;41.910;22.404;2023-09-18T03:23:10;15.60;;;12.25;;
82646;SDS011;72325;41.910;22.404;2023-09-18T03:25:36;15.73;;;12.27;;
82646;SDS011;72325;41.910;22.404;2023-09-18T03:28:03;15.23;;;12.85;;
82646;SDS011;72325;41.910;22.404;2023-09-18T03:30:29;15.27;;;11.43;;
82646;SDS011;72325;41.910;22.404;2023-09-18T03:32:55;15.77;;;11.95;;
82646;SDS011;72325;41.910;22.404;2023-09-18T03:35:21;13.75;;;11.02;;
82646;SDS011;72325;41.910;22.404;2023-09-18T03:37:48;16.83;;;11.68;;
82646;SDS011;72325;41.910;22.404;2023-09-18T03:40:14;16.35;;;11.68;;
82646;SDS011;72325;41.910;22.404;2023-09-18T03:42:40;16.85;;;10.98;;
82646;SDS011;72325;41.910;22.404;2023-09-18T03:45:07;17.13;;;11.73;;
82646;SDS011;72325;41.910;22.404;2023-09-18T03:47:34;17.13;;;11.85;;
82646;SDS011;72325;41.910;22.404;2023-09-18T03:50:01;15.13;;;11.82;;
82646;SDS011;72325;41.910;22.404;2023-09-18T03:52:27;15.18;;;11.90;;
82646;SDS011;72325;41.910;22.404;2023-09-18T03:54:53;14.63;;;11.43;;
82646;SDS011;72325;41.910;22.404;2023-09-18T03:57:19;14.35;;;11.02;;
82646;SDS011;72325;41.910;22.404;2023-09-18T03:59:45;16.55;;;10.77;;
82646;SDS011;72325;41.910;22.404;2023-09-18T04:02:11;16.40;;;11.55;;
82646;SDS011;72325;41.910;22.404;2023-09-18T04:04:37;17.10;;;12.02;;
82646;SDS011;72325;41.910;22.404;2023-09-18T04:07:07;13.85;;;11.65;;
82646;SDS011;72325;41.910;22.404;2023-09-18T04:09:33;14.57;;;11.57;;
82646;SDS011;72325;41.910;22.404;2023-09-18T04:12:03;16.00;;;11.25;;
82646;SDS011;72325;41.910;22.404;2023-09-18T04:14:32;18.13;;;11.50;;
82646;SDS011;72325;41.910;22.404;2023-09-18T04:16:58;16.42;;;11.25;;
82646;SDS011;72325;41.910;22.404;2023-09-18T04:19:25;15.23;;;11.65;;
82646;SDS011;72325;41.910;22.404;2023-09-18T04:21:51;13.93;;;10.95;;
82646;SDS011;72325;41.910;22.404;2023-09-18T04:24:17;16.38;;;11.95;;
82646;SDS011;72325;41.910;22.404;2023-09-18T04:26:44;17.15;;;12.48;;
82646;SDS011;72325;41.910;22.404;2023-09-18T04:29:10;14.27;;;11.23;;
82646;SDS011;72325;41.910;22.404;2023-09-18T04:31:36;24.95;;;11.30;;
82646;SDS011;72325;41.910;22.404;2023-09-18T04:34:03;13.38;;;10.93;;
82646;SDS011;72325;41.910;22.404;2023-09-18T04:36:29;20.02;;;11.48;;
82646;SDS011;72325;41.910;22.404;2023-09-18T04:38:56;16.67;;;11.63;;
82646;SDS011;72325;41.910;22.404;2023-09-18T04:41:23;14.90;;;11.13;;
82646;SDS011;72325;41.910;22.404;2023-09-18T04:43:49;17.88;;;11.45;;
82646;SDS011;72325;41.910;22.404;2023-09-18T04:46:16;19.52;;;11.82;;
82646;SDS011;72325;41.910;22.404;2023-09-18T04:48:42;14.35;;;10.85;;
82646;SDS011;72325;41.910;22.404;2023-09-18T04:51:08;18.80;;;11.48;;
82646;SDS011;72325;41.910;22.404;2023-09-18T04:53:34;13.90;;;11.38;;
82646;SDS011;72325;41.910;22.404;2023-09-18T04:56:00;19.85;;;11.43;;
82646;SDS011;72325;41.910;22.404;2023-09-18T04:58:28;14.50;;;10.55;;
82646;SDS011;72325;41.910;22.404;2023-09-18T05:00:58;15.68;;;10.77;;
82646;SDS011;72325;41.910;22.404;2023-09-18T05:03:25;13.73;;;10.70;;
82646;SDS011;72325;41.910;22.404;2023-09-18T05:05:54;17.92;;;14.15;;
82646;SDS011;72325;41.910;22.404;2023-09-18T05:08:20;21.80;;;14.27;;
82646;SDS011;72325;41.910;22.404;2023-09-18T05:10:47;22.10;;;13.98;;
82646;SDS011;72325;41.910;22.404;2023-09-18T05:13:13;22.23;;;15.55;;
82646;SDS011;72325;41.910;22.404;2023-09-18T05:15:39;21.33;;;15.25;;
82646;SDS011;72325;41.910;22.404;2023-09-18T05:18:05;23.80;;;15.93;;
82646;SDS011;72325;41.910;22.404;2023-09-18T05:20:34;21.88;;;16.15;;
82646;SDS011;72325;41.910;22.404;2023-09-18T05:23:00;21.92;;;16.02;;
82646;SDS011;72325;41.910;22.404;2023-09-18T05:25:27;22.15;;;16.10;;
82646;SDS011;72325;41.910;22.404;2023-09-18T05:27:57;22.52;;;16.65;;
82646;SDS011;72325;41.910;22.404;2023-09-18T05:30:28;25.92;;;16.30;;
82646;SDS011;72325;41.910;22.404;2023-09-18T05:32:57;23.67;;;17.20;;
82646;SDS011;72325;41.910;22.404;2023-09-18T05:35:33;25.00;;;17.67;;
82646;SDS011;72325;41.910;22.404;2023-09-18T05:37:59;25.42;;;17.33;;
82646;SDS011;72325;41.910;22.404;2023-09-18T05:40:26;24.10;;;17.35;;
82646;SDS011;72325;41.910;22.404;2023-09-18T05:42:53;24.75;;;18.58;;
82646;SDS011;72325;41.910;22.404;2023-09-18T05:45:19;26.20;;;17.92;;
82646;SDS011;72325;41.910;22.404;2023-09-18T05:47:45;25.48;;;17.95;;
82646;SDS011;72325;41.910;22.404;2023-09-18T05:50:12;28.38;;;20.23;;
82646;SDS011;72325;41.910;22.404;2023-09-18T05:52:45;32.65;;;22.92;;
82646;SDS011;72325;41.910;22.404;2023-09-18T05:55:12;26.30;;;19.00;;
82646;SDS011;72325;41.910;22.404;2023-09-18T05:57:38;26.90;;;18.45;;
82646;SDS011;72325;41.910;22.404;2023-09-18T06:00:04;26.17;;;18.13;;
82646;SDS011;72325;41.910;22.404;2023-09-18T06:02:31;24.83;;;17.45;;
82646;SDS011;72325;41.910;22.404;2023-09-18T06:04:58;21.58;;;18.23;;
82646;SDS011;72325;41.910;22.404;2023-09-18T06:07:31;26.00;;;18.95;;
82646;SDS011;72325;41.910;22.404;2023-09-18T06:09:57;25.73;;;18.85;;
82646;SDS011;72325;41.910;22.404;2023-09-18T06:12:23;24.92;;;18.77;;
82646;SDS011;72325;41.910;22.404;2023-09-18T06:14:50;27.33;;;20.30;;
82646;SDS011;72325;41.910;22.404;2023-09-18T06:17:17;30.65;;;26.30;;
82646;SDS011;72325;41.910;22.404;2023-09-18T06:19:43;37.80;;;29.98;;
82646;SDS011;72325;41.910;22.404;2023-09-18T06:22:10;22.33;;;17.73;;
82646;SDS011;72325;41.910;22.404;2023-09-18T06:24:36;22.63;;;18.40;;
82646;SDS011;72325;41.910;22.404;2023-09-18T06:27:02;21.05;;;16.92;;
82646;SDS011;72325;41.910;22.404;2023-09-18T06:29:32;21.05;;;15.57;;
82646;SDS011;72325;41.910;22.404;2023-09-18T06:31:58;18.95;;;15.98;;
82646;SDS011;72325;41.910;22.404;2023-09-18T06:34:24;17.08;;;14.85;;
82646;SDS011;72325;41.910;22.404;2023-09-18T06:36:51;19.65;;;15.43;;
82646;SDS011;72325;41.910;22.404;2023-09-18T06:39:17;19.08;;;15.30;;
82646;SDS011;72325;41.910;22.404;2023-09-18T06:41:43;21.42;;;15.48;;
82646;SDS011;72325;41.910;22.404;2023-09-18T06:44:09;20.60;;;16.02;;
82646;SDS011;72325;41.910;22.404;2023-09-18T06:46:35;19.30;;;15.68;;
82646;SDS011;72325;41.910;22.404;2023-09-18T06:49:01;17.75;;;15.50;;
82646;SDS011;72325;41.910;22.404;2023-09-18T06:51:28;20.10;;;16.95;;
82646;SDS011;72325;41.910;22.404;2023-09-18T06:53:54;19.10;;;14.65;;
82646;SDS011;72325;41.910;22.404;2023-09-18T06:56:22;18.65;;;16.05;;
82646;SDS011;72325;41.910;22.404;2023-09-18T06:58:49;17.80;;;15.18;;
82646;SDS011;72325;41.910;22.404;2023-09-18T07:01:17;19.25;;;14.90;;
82646;SDS011;72325;41.910;22.404;2023-09-18T07:03:44;20.30;;;15.30;;
82646;SDS011;72325;41.910;22.404;2023-09-18T07:06:12;19.92;;;15.23;;
82646;SDS011;72325;41.910;22.404;2023-09-18T07:08:38;17.75;;;15.10;;
82646;SDS011;72325;41.910;22.404;2023-09-18T07:11:04;18.85;;;14.60;;
82646;SDS011;72325;41.910;22.404;2023-09-18T07:13:30;20.55;;;14.07;;
82646;SDS011;72325;41.910;22.404;2023-09-18T07:15:56;17.50;;;14.10;;
82646;SDS011;72325;41.910;22.404;2023-09-18T07:18:22;17.75;;;14.30;;
82646;SDS011;72325;41.910;22.404;2023-09-18T07:20:48;18.80;;;15.18;;
82646;SDS011;72325;41.910;22.404;2023-09-18T07:23:14;16.05;;;14.25;;
82646;SDS011;72325;41.910;22.404;2023-09-18T07:25:40;17.52;;;14.80;;
82646;SDS011;72325;41.910;22.404;2023-09-18T07:28:08;19.30;;;15.05;;
82646;SDS011;72325;41.910;22.404;2023-09-18T07:30:38;21.05;;;15.57;;
82646;SDS011;72325;41.910;22.404;2023-09-18T07:33:04;16.98;;;14.60;;
82646;SDS011;72325;41.910;22.404;2023-09-18T07:35:30;19.23;;;15.13;;
82646;SDS011;72325;41.910;22.404;2023-09-18T07:37:56;18.50;;;15.25;;
82646;SDS011;72325;41.910;22.404;2023-09-18T07:40:22;17.65;;;15.70;;
82646;SDS011;72325;41.910;22.404;2023-09-18T07:42:48;20.63;;;15.88;;
82646;SDS011;72325;41.910;22.404;2023-09-18T07:45:14;19.67;;;15.50;;
82646;SDS011;72325;41.910;22.404;2023-09-18T07:47:40;19.08;;;15.25;;
82646;SDS011;72325;41.910;22.404;2023-09-18T07:50:07;16.90;;;14.13;;
82646;SDS011;72325;41.910;22.404;2023-09-18T07:52:33;16.33;;;14.45;;
82646;SDS011;72325;41.910;22.404;2023-09-18T07:54:59;18.73;;;14.55;;
82646;SDS011;72325;41.910;22.404;2023-09-18T07:57:25;18.08;;;15.13;;
82646;SDS011;72325;41.910;22.404;2023-09-18T07:59:57;16.95;;;14.05;;
82646;SDS011;72325;41.910;22.404;2023-09-18T08:02:23;16.48;;;14.00;;
82646;SDS011;72325;41.910;22.404;2023-09-18T08:04:50;17.58;;;14.32;;
82646;SDS011;72325;41.910;22.404;2023-09-18T08:07:18;17.10;;;14.52;;
82646;SDS011;72325;41.910;22.404;2023-09-18T08:09:44;23.05;;;16.15;;
82646;SDS011;72325;41.910;22.404;2023-09-18T08:12:14;19.70;;;15.13;;
82646;SDS011;72325;41.910;22.404;2023-09-18T08:14:40;18.98;;;15.40;;
82646;SDS011;72325;41.910;22.404;2023-09-18T08:17:06;18.90;;;14.90;;
82646;SDS011;72325;41.910;22.404;2023-09-18T08:19:32;16.77;;;14.95;;
82646;SDS011;72325;41.910;22.404;2023-09-18T08:21:59;18.15;;;14.85;;
82646;SDS011;72325;41.910;22.404;2023-09-18T08:24:25;16.27;;;13.95;;
82646;SDS011;72325;41.910;22.404;2023-09-18T08:26:51;15.10;;;12.90;;
82646;SDS011;72325;41.910;22.404;2023-09-18T08:29:18;17.05;;;13.43;;
82646;SDS011;72325;41.910;22.404;2023-09-18T08:31:45;16.27;;;14.23;;
82646;SDS011;72325;41.910;22.404;2023-09-18T08:34:11;19.45;;;14.25;;
82646;SDS011;72325;41.910;22.404;2023-09-18T08:36:37;16.73;;;14.88;;
82646;SDS011;72325;41.910;22.404;2023-09-18T08:39:03;17.15;;;14.38;;
82646;SDS011;72325;41.910;22.404;2023-09-18T08:41:33;16.85;;;14.60;;
82646;SDS011;72325;41.910;22.404;2023-09-18T08:44:02;16.40;;;13.70;;
82646;SDS011;72325;41.910;22.404;2023-09-18T08:46:29;15.88;;;13.60;;
82646;SDS011;72325;41.910;22.404;2023-09-18T08:48:55;18.85;;;14.40;;
82646;SDS011;72325;41.910;22.404;2023-09-18T08:51:21;15.80;;;14.05;;
82646;SDS011;72325;41.910;22.404;2023-09-18T08:53:48;19.75;;;14.73;;
82646;SDS011;72325;41.910;22.404;2023-09-18T08:56:15;17.48;;;15.10;;
82646;SDS011;72325;41.910;22.404;2023-09-18T08:58:43;17.88;;;14.43;;
82646;SDS011;72325;41.910;22.404;2023-09-18T09:01:09;15.30;;;12.90;;
82646;SDS011;72325;41.910;22.404;2023-09-18T09:03:38;15.80;;;13.38;;
82646;SDS011;72325;41.910;22.404;2023-09-18T09:06:07;14.90;;;12.90;;
82646;SDS011;72325;41.910;22.404;2023-09-18T09:08:34;15.93;;;12.98;;
82646;SDS011;72325;41.910;22.404;2023-09-18T09:11:00;15.45;;;13.43;;
82646;SDS011;72325;41.910;22.404;2023-09-18T09:13:26;16.30;;;13.32;;
82646;SDS011;72325;41.910;22.404;2023-09-18T09:15:53;14.88;;;12.45;;
82646;SDS011;72325;41.910;22.404;2023-09-18T09:18:21;14.13;;;12.63;;
82646;SDS011;72325;41.910;22.404;2023-09-18T09:20:57;16.80;;;13.48;;
82646;SDS011;72325;41.910;22.404;2023-09-18T09:23:28;15.13;;;12.85;;
82646;SDS011;72325;41.910;22.404;2023-09-18T09:25:59;16.13;;;13.23;;
82646;SDS011;72325;41.910;22.404;2023-09-18T09:28:37;13.25;;;11.30;;
82646;SDS011;72325;41.910;22.404;2023-09-18T09:31:03;14.07;;;12.00;;
82646;SDS011;72325;41.910;22.404;2023-09-18T09:33:30;11.73;;;10.40;;
82646;SDS011;72325;41.910;22.404;2023-09-18T09:35:57;13.70;;;11.13;;
82646;SDS011;72325;41.910;22.404;2023-09-18T09:38:30;15.68;;;12.40;;
82646;SDS011;72325;41.910;22.404;2023-09-18T09:40:57;14.27;;;12.35;;
82646;SDS011;72325;41.910;22.404;2023-09-18T09:43:27;14.70;;;12.13;;
82646;SDS011;72325;41.910;22.404;2023-09-18T09:46:00;15.02;;;11.70;;
82646;SDS011;72325;41.910;22.404;2023-09-18T09:48:26;12.38;;;10.52;;
82646;SDS011;72325;41.910;22.404;2023-09-18T09:50:57;13.05;;;11.35;;
82646;SDS011;72325;41.910;22.404;2023-09-18T09:53:43;14.38;;;11.40;;
82646;SDS011;72325;41.910;22.404;2023-09-18T09:56:12;13.23;;;11.15;;
82646;SDS011;72325;41.910;22.404;2023-09-18T09:58:38;12.88;;;10.77;;
82646;SDS011;72325;41.910;22.404;2023-09-18T10:01:09;14.70;;;11.70;;
82646;SDS011;72325;41.910;22.404;2023-09-18T10:03:36;12.40;;;10.60;;
82646;SDS011;72325;41.910;22.404;2023-09-18T10:06:05;13.82;;;11.10;;
82646;SDS011;72325;41.910;22.404;2023-09-18T10:08:31;12.32;;;11.02;;
82646;SDS011;72325;41.910;22.404;2023-09-18T10:11:04;14.07;;;12.40;;
82646;SDS011;72325;41.910;22.404;2023-09-18T10:13:41;12.88;;;11.57;;
82646;SDS011;72325;41.910;22.404;2023-09-18T10:16:08;12.77;;;11.50;;
82646;SDS011;72325;41.910;22.404;2023-09-18T10:21:26;16.48;;;12.35;;
82646;SDS011;72325;41.910;22.404;2023-09-18T10:24:04;14.93;;;12.23;;
82646;SDS011;72325;41.910;22.404;2023-09-18T10:26:36;12.68;;;11.43;;
82646;SDS011;72325;41.910;22.404;2023-09-18T10:29:05;12.88;;;11.63;;
82646;SDS011;72325;41.910;22.404;2023-09-18T10:31:36;13.68;;;11.13;;
82646;SDS011;72325;41.910;22.404;2023-09-18T10:34:06;13.65;;;11.68;;
82646;SDS011;72325;41.910;22.404;2023-09-18T10:36:32;14.52;;;12.20;;
82646;SDS011;72325;41.910;22.404;2023-09-18T10:39:00;14.80;;;11.93;;
82646;SDS011;72325;41.910;22.404;2023-09-18T10:41:27;14.38;;;12.15;;
82646;SDS011;72325;41.910;22.404;2023-09-18T10:43:53;13.43;;;11.45;;
82646;SDS011;72325;41.910;22.404;2023-09-18T10:46:21;13.27;;;11.50;;
82646;SDS011;72325;41.910;22.404;2023-09-18T10:48:48;12.38;;;11.10;;
82646;SDS011;72325;41.910;22.404;2023-09-18T10:51:14;13.93;;;11.27;;
82646;SDS011;72325;41.910;22.404;2023-09-18T10:53:45;13.82;;;11.23;;
82646;SDS011;72325;41.910;22.404;2023-09-18T10:56:14;11.68;;;10.38;;
82646;SDS011;72325;41.910;22.404;2023-09-18T10:58:41;11.77;;;10.52;;
82646;SDS011;72325;41.910;22.404;2023-09-18T11:01:11;11.85;;;10.65;;
82646;SDS011;72325;41.910;22.404;2023-09-18T11:03:37;11.68;;;10.50;;
82646;SDS011;72325;41.910;22.404;2023-09-18T11:06:05;15.60;;;10.38;;
82646;SDS011;72325;41.910;22.404;2023-09-18T11:08:35;9.57;;;8.63;;
82646;SDS011;72325;41.910;22.404;2023-09-18T11:11:08;10.20;;;9.20;;
82646;SDS011;72325;41.910;22.404;2023-09-18T11:13:45;10.40;;;8.23;;
82646;SDS011;72325;41.910;22.404;2023-09-18T11:16:16;9.68;;;8.70;;
82646;SDS011;72325;41.910;22.404;2023-09-18T11:18:45;14.20;;;10.55;;
82646;SDS011;72325;41.910;22.404;2023-09-18T11:21:12;10.75;;;9.57;;
82646;SDS011;72325;41.910;22.404;2023-09-18T11:23:38;10.07;;;8.77;;
82646;SDS011;72325;41.910;22.404;2023-09-18T11:26:11;9.75;;;8.43;;
82646;SDS011;72325;41.910;22.404;2023-09-18T11:28:37;8.10;;;7.30;;
82646;SDS011;72325;41.910;22.404;2023-09-18T11:31:03;9.07;;;6.75;;
82646;SDS011;72325;41.910;22.404;2023-09-18T11:35:56;8.40;;;6.10;;
82646;SDS011;72325;41.910;22.404;2023-09-18T11:38:22;7.25;;;6.13;;
82646;SDS011;72325;41.910;22.404;2023-09-18T11:40:48;7.05;;;6.18;;
82646;SDS011;72325;41.910;22.404;2023-09-18T11:43:27;8.43;;;6.00;;
82646;SDS011;72325;41.910;22.404;2023-09-18T11:46:00;6.40;;;5.80;;
82646;SDS011;72325;41.910;22.404;2023-09-18T11:48:30;6.70;;;6.00;;
82646;SDS011;72325;41.910;22.404;2023-09-18T11:51:00;8.65;;;6.55;;
82646;SDS011;72325;41.910;22.404;2023-09-18T11:53:30;6.15;;;5.55;;
82646;SDS011;72325;41.910;22.404;2023-09-18T11:55:59;6.95;;;5.95;;
82646;SDS011;72325;41.910;22.404;2023-09-18T11:58:26;6.75;;;5.55;;
82646;SDS011;72325;41.910;22.404;2023-09-18T12:00:52;6.72;;;5.65;;
82646;SDS011;72325;41.910;22.404;2023-09-18T12:03:20;6.72;;;5.32;;
82646;SDS011;72325;41.910;22.404;2023-09-18T12:05:57;5.88;;;5.25;;
82646;SDS011;72325;41.910;22.404;2023-09-18T12:08:24;8.68;;;5.32;;
82646;SDS011;72325;41.910;22.404;2023-09-18T12:10:54;5.85;;;5.25;;
82646;SDS011;72325;41.910;22.404;2023-09-18T12:13:21;7.07;;;5.47;;
82646;SDS011;72325;41.910;22.404;2023-09-18T12:15:48;6.18;;;5.57;;
82646;SDS011;72325;41.910;22.404;2023-09-18T12:18:14;6.40;;;5.80;;
82646;SDS011;72325;41.910;22.404;2023-09-18T12:20:44;8.43;;;5.50;;
82646;SDS011;72325;41.910;22.404;2023-09-18T12:23:10;8.70;;;6.22;;
82646;SDS011;72325;41.910;22.404;2023-09-18T12:25:36;6.80;;;5.70;;
82646;SDS011;72325;41.910;22.404;2023-09-18T12:28:05;6.88;;;5.90;;
82646;SDS011;72325;41.910;22.404;2023-09-18T12:30:32;7.93;;;7.05;;
82646;SDS011;72325;41.910;22.404;2023-09-18T12:32:58;7.88;;;7.07;;
82646;SDS011;72325;41.910;22.404;2023-09-18T12:35:30;8.77;;;7.93;;
82646;SDS011;72325;41.910;22.404;2023-09-18T12:38:00;9.27;;;7.22;;
82646;SDS011;72325;41.910;22.404;2023-09-18T12:40:29;12.10;;;7.38;;
82646;SDS011;72325;41.910;22.404;2023-09-18T12:42:58;9.00;;;7.97;;
82646;SDS011;72325;41.910;22.404;2023-09-18T12:45:25;9.90;;;7.85;;
82646;SDS011;72325;41.910;22.404;2023-09-18T12:47:51;9.27;;;8.27;;
82646;SDS011;72325;41.910;22.404;2023-09-18T12:50:18;9.65;;;7.80;;
82646;SDS011;72325;41.910;22.404;2023-09-18T12:52:44;8.90;;;7.88;;
82646;SDS011;72325;41.910;22.404;2023-09-18T12:55:23;7.90;;;7.00;;
82646;SDS011;72325;41.910;22.404;2023-09-18T12:57:49;7.55;;;6.78;;
82646;SDS011;72325;41.910;22.404;2023-09-18T13:00:19;9.05;;;7.53;;
82646;SDS011;72325;41.910;22.404;2023-09-18T13:02:47;9.35;;;7.70;;
82646;SDS011;72325;41.910;22.404;2023-09-18T13:05:19;9.27;;;6.57;;
82646;SDS011;72325;41.910;22.404;2023-09-18T13:07:45;8.82;;;7.05;;
82646;SDS011;72325;41.910;22.404;2023-09-18T13:10:12;9.05;;;6.30;;
82646;SDS011;72325;41.910;22.404;2023-09-18T13:15:06;11.40;;;7.78;;
82646;SDS011;72325;41.910;22.404;2023-09-18T13:17:42;8.05;;;7.10;;
82646;SDS011;72325;41.910;22.404;2023-09-18T13:20:11;8.10;;;7.28;;
82646;SDS011;72325;41.910;22.404;2023-09-18T13:22:40;9.38;;;8.40;;
82646;SDS011;72325;41.910;22.404;2023-09-18T13:25:10;9.63;;;7.97;;
82646;SDS011;72325;41.910;22.404;2023-09-18T13:27:36;9.20;;;8.10;;
82646;SDS011;72325;41.910;22.404;2023-09-18T13:30:03;11.05;;;8.05;;
82646;SDS011;72325;41.910;22.404;2023-09-18T13:32:35;9.48;;;8.57;;
82646;SDS011;72325;41.910;22.404;2023-09-18T13:35:04;9.95;;;7.80;;
82646;SDS011;72325;41.910;22.404;2023-09-18T13:37:31;11.95;;;8.10;;
82646;SDS011;72325;41.910;22.404;2023-09-18T13:39:57;12.02;;;7.97;;
82646;SDS011;72325;41.910;22.404;2023-09-18T13:42:26;8.35;;;7.47;;
82646;SDS011;72325;41.910;22.404;2023-09-18T13:44:54;8.25;;;7.45;;
82646;SDS011;72325;41.910;22.404;2023-09-18T13:47:21;8.45;;;7.65;;
82646;SDS011;72325;41.910;22.404;2023-09-18T13:49:47;8.35;;;7.55;;
82646;SDS011;72325;41.910;22.404;2023-09-18T13:52:13;8.70;;;7.80;;
82646;SDS011;72325;41.910;22.404;2023-09-18T13:54:39;8.57;;;7.78;;
82646;SDS011;72325;41.910;22.404;2023-09-18T13:57:06;8.35;;;7.55;;
82646;SDS011;72325;41.910;22.404;2023-09-18T13:59:32;8.10;;;7.38;;
82646;SDS011;72325;41.910;22.404;2023-09-18T14:01:58;7.88;;;7.00;;
82646;SDS011;72325;41.910;22.404;2023-09-18T14:04:24;7.88;;;7.07;;
82646;SDS011;72325;41.910;22.404;2023-09-18T14:06:53;8.23;;;7.32;;
82646;SDS011;72325;41.910;22.404;2023-09-18T14:09:19;11.52;;;7.07;;
82646;SDS011;72325;41.910;22.404;2023-09-18T14:11:46;7.63;;;6.68;;
82646;SDS011;72325;41.910;22.404;2023-09-18T14:14:12;8.30;;;7.22;;
82646;SDS011;72325;41.910;22.404;2023-09-18T14:16:38;8.23;;;7.35;;
82646;SDS011;72325;41.910;22.404;2023-09-18T14:19:04;8.40;;;7.40;;
82646;SDS011;72325;41.910;22.404;2023-09-18T14:21:30;7.53;;;6.80;;
82646;SDS011;72325;41.910;22.404;2023-09-18T14:23:58;7.03;;;6.32;;
82646;SDS011;72325;41.910;22.404;2023-09-18T14:26:24;7.75;;;7.00;;